sensor_id;sensor_type;location;lat;lon;timestamp;P1;durP1;ratioP1;P2;durP2;ratioP2
65715;SDS011;63484;52.054;8.518;2023-06-10T00:03:41;12.25;;;9.10;;
65715;SDS011;63484;52.054;8.518;2023-06-10T00:08:43;12.05;;;8.60;;
65715;SDS011;63484;52.054;8.518;2023-06-10T00:18:50;14.60;;;8.63;;
65715;SDS011;63484;52.054;8.518;2023-06-10T00:23:52;12.73;;;8.88;;
65715;SDS011;63484;52.054;8.518;2023-06-10T00:28:56;15.33;;;8.60;;
65715;SDS011;63484;52.054;8.518;2023-06-10T00:33:58;12.15;;;8.55;;
65715;SDS011;63484;52.054;8.518;2023-06-10T00:39:00;10.00;;;8.05;;
65715;SDS011;63484;52.054;8.518;2023-06-10T00:44:03;11.48;;;8.77;;
65715;SDS011;63484;52.054;8.518;2023-06-10T00:49:05;11.93;;;8.05;;
65715;SDS011;63484;52.054;8.518;2023-06-10T00:54:11;12.10;;;8.25;;
65715;SDS011;63484;52.054;8.518;2023-06-10T00:59:16;11.65;;;8.40;;
65715;SDS011;63484;52.054;8.518;2023-06-10T01:04:20;15.00;;;8.35;;
65715;SDS011;63484;52.054;8.518;2023-06-10T01:09:24;13.27;;;8.43;;
65715;SDS011;63484;52.054;8.518;2023-06-10T01:14:37;12.23;;;7.78;;
65715;SDS011;63484;52.054;8.518;2023-06-10T01:19:52;10.77;;;8.35;;
65715;SDS011;63484;52.054;8.518;2023-06-10T01:24:57;13.70;;;8.05;;
65715;SDS011;63484;52.054;8.518;2023-06-10T01:30:03;11.85;;;7.90;;
65715;SDS011;63484;52.054;8.518;2023-06-10T01:35:08;12.38;;;7.53;;
65715;SDS011;63484;52.054;8.518;2023-06-10T01:40:14;11.25;;;7.88;;
65715;SDS011;63484;52.054;8.518;2023-06-10T01:45:19;12.73;;;8.07;;
65715;SDS011;63484;52.054;8.518;2023-06-10T01:50:21;14.02;;;8.38;;
65715;SDS011;63484;52.054;8.518;2023-06-10T01:55:24;12.52;;;7.80;;
65715;SDS011;63484;52.054;8.518;2023-06-10T02:00:28;13.80;;;7.38;;
65715;SDS011;63484;52.054;8.518;2023-06-10T02:05:30;10.93;;;7.28;;
65715;SDS011;63484;52.054;8.518;2023-06-10T02:10:33;14.20;;;8.02;;
65715;SDS011;63484;52.054;8.518;2023-06-10T02:15:35;10.75;;;7.32;;
65715;SDS011;63484;52.054;8.518;2023-06-10T02:20:37;11.32;;;7.40;;
65715;SDS011;63484;52.054;8.518;2023-06-10T02:25:40;11.00;;;7.28;;
65715;SDS011;63484;52.054;8.518;2023-06-10T02:30:42;11.90;;;7.28;;
65715;SDS011;63484;52.054;8.518;2023-06-10T02:35:44;12.60;;;7.50;;
65715;SDS011;63484;52.054;8.518;2023-06-10T02:40:47;13.02;;;7.45;;
65715;SDS011;63484;52.054;8.518;2023-06-10T02:45:49;16.63;;;7.43;;
65715;SDS011;63484;52.054;8.518;2023-06-10T02:50:51;11.70;;;7.10;;
65715;SDS011;63484;52.054;8.518;2023-06-10T02:56:10;14.65;;;7.20;;
65715;SDS011;63484;52.054;8.518;2023-06-10T03:01:13;11.98;;;7.00;;
65715;SDS011;63484;52.054;8.518;2023-06-10T03:06:23;10.40;;;7.13;;
65715;SDS011;63484;52.054;8.518;2023-06-10T03:11:32;11.13;;;7.20;;
65715;SDS011;63484;52.054;8.518;2023-06-10T03:16:34;12.10;;;6.97;;
65715;SDS011;63484;52.054;8.518;2023-06-10T03:21:43;10.73;;;6.80;;
65715;SDS011;63484;52.054;8.518;2023-06-10T03:26:49;10.07;;;6.28;;
65715;SDS011;63484;52.054;8.518;2023-06-10T03:31:51;10.35;;;6.70;;
65715;SDS011;63484;52.054;8.518;2023-06-10T03:36:53;9.90;;;6.28;;
65715;SDS011;63484;52.054;8.518;2023-06-10T03:41:56;10.25;;;6.25;;
65715;SDS011;63484;52.054;8.518;2023-06-10T03:47:00;11.52;;;6.43;;
65715;SDS011;63484;52.054;8.518;2023-06-10T03:52:03;9.48;;;6.30;;
65715;SDS011;63484;52.054;8.518;2023-06-10T03:57:07;9.77;;;5.97;;
65715;SDS011;63484;52.054;8.518;2023-06-10T04:02:09;10.10;;;6.07;;
65715;SDS011;63484;52.054;8.518;2023-06-10T04:07:14;9.68;;;5.82;;
65715;SDS011;63484;52.054;8.518;2023-06-10T04:12:17;9.20;;;5.50;;
65715;SDS011;63484;52.054;8.518;2023-06-10T04:17:19;11.00;;;5.47;;
65715;SDS011;63484;52.054;8.518;2023-06-10T04:22:21;8.70;;;5.95;;
65715;SDS011;63484;52.054;8.518;2023-06-10T04:27:25;8.90;;;4.90;;
65715;SDS011;63484;52.054;8.518;2023-06-10T04:32:28;8.35;;;4.93;;
65715;SDS011;63484;52.054;8.518;2023-06-10T04:37:32;10.20;;;4.15;;
65715;SDS011;63484;52.054;8.518;2023-06-10T04:42:36;8.02;;;4.10;;
65715;SDS011;63484;52.054;8.518;2023-06-10T04:47:38;6.75;;;3.72;;
65715;SDS011;63484;52.054;8.518;2023-06-10T04:52:41;11.43;;;4.20;;
65715;SDS011;63484;52.054;8.518;2023-06-10T04:57:45;8.40;;;4.10;;
65715;SDS011;63484;52.054;8.518;2023-06-10T05:02:46;7.82;;;3.90;;
65715;SDS011;63484;52.054;8.518;2023-06-10T05:07:49;6.23;;;3.60;;
65715;SDS011;63484;52.054;8.518;2023-06-10T05:12:52;8.10;;;3.70;;
65715;SDS011;63484;52.054;8.518;2023-06-10T05:17:56;10.55;;;3.97;;
65715;SDS011;63484;52.054;8.518;2023-06-10T05:23:00;9.73;;;3.50;;
65715;SDS011;63484;52.054;8.518;2023-06-10T05:28:06;9.57;;;3.97;;
65715;SDS011;63484;52.054;8.518;2023-06-10T05:33:10;6.85;;;3.70;;
65715;SDS011;63484;52.054;8.518;2023-06-10T05:38:11;7.72;;;3.85;;
65715;SDS011;63484;52.054;8.518;2023-06-10T05:43:14;11.57;;;4.30;;
65715;SDS011;63484;52.054;8.518;2023-06-10T05:48:17;6.68;;;3.90;;
65715;SDS011;63484;52.054;8.518;2023-06-10T05:53:20;6.38;;;3.38;;
65715;SDS011;63484;52.054;8.518;2023-06-10T05:58:23;8.48;;;3.70;;
65715;SDS011;63484;52.054;8.518;2023-06-10T06:03:25;5.90;;;3.80;;
65715;SDS011;63484;52.054;8.518;2023-06-10T06:08:30;8.10;;;3.92;;
65715;SDS011;63484;52.054;8.518;2023-06-10T06:13:36;7.68;;;3.28;;
65715;SDS011;63484;52.054;8.518;2023-06-10T06:18:40;8.88;;;3.72;;
65715;SDS011;63484;52.054;8.518;2023-06-10T06:23:43;6.28;;;3.55;;
65715;SDS011;63484;52.054;8.518;2023-06-10T06:28:47;6.22;;;3.25;;
65715;SDS011;63484;52.054;8.518;2023-06-10T06:33:48;6.88;;;3.75;;
65715;SDS011;63484;52.054;8.518;2023-06-10T06:38:50;7.90;;;3.42;;
65715;SDS011;63484;52.054;8.518;2023-06-10T06:43:57;7.40;;;3.58;;
65715;SDS011;63484;52.054;8.518;2023-06-10T06:49:04;7.13;;;3.33;;
65715;SDS011;63484;52.054;8.518;2023-06-10T06:54:05;6.10;;;2.88;;
65715;SDS011;63484;52.054;8.518;2023-06-10T06:59:11;12.68;;;3.58;;
65715;SDS011;63484;52.054;8.518;2023-06-10T07:04:16;5.25;;;3.05;;
65715;SDS011;63484;52.054;8.518;2023-06-10T07:09:19;5.13;;;3.00;;
65715;SDS011;63484;52.054;8.518;2023-06-10T07:14:26;4.57;;;2.63;;
65715;SDS011;63484;52.054;8.518;2023-06-10T07:19:27;4.93;;;2.83;;
65715;SDS011;63484;52.054;8.518;2023-06-10T07:29:32;8.98;;;3.30;;
65715;SDS011;63484;52.054;8.518;2023-06-10T07:34:35;5.18;;;3.15;;
65715;SDS011;63484;52.054;8.518;2023-06-10T07:39:39;6.07;;;3.42;;
65715;SDS011;63484;52.054;8.518;2023-06-10T07:44:46;8.10;;;3.28;;
65715;SDS011;63484;52.054;8.518;2023-06-10T07:49:48;6.32;;;3.45;;
65715;SDS011;63484;52.054;8.518;2023-06-10T07:54:49;7.40;;;3.42;;
65715;SDS011;63484;52.054;8.518;2023-06-10T07:59:52;7.47;;;3.40;;
65715;SDS011;63484;52.054;8.518;2023-06-10T08:04:55;6.60;;;3.22;;
65715;SDS011;63484;52.054;8.518;2023-06-10T08:09:56;6.45;;;3.03;;
65715;SDS011;63484;52.054;8.518;2023-06-10T08:15:00;4.90;;;3.13;;
65715;SDS011;63484;52.054;8.518;2023-06-10T08:20:02;7.57;;;3.10;;
65715;SDS011;63484;52.054;8.518;2023-06-10T08:25:04;4.32;;;3.10;;
65715;SDS011;63484;52.054;8.518;2023-06-10T08:30:08;7.75;;;3.15;;
65715;SDS011;63484;52.054;8.518;2023-06-10T08:35:11;8.73;;;3.45;;
65715;SDS011;63484;52.054;8.518;2023-06-10T08:40:12;6.85;;;3.35;;
65715;SDS011;63484;52.054;8.518;2023-06-10T08:45:18;5.63;;;3.40;;
65715;SDS011;63484;52.054;8.518;2023-06-10T08:50:20;6.07;;;3.35;;
65715;SDS011;63484;52.054;8.518;2023-06-10T08:55:23;9.80;;;3.17;;
65715;SDS011;63484;52.054;8.518;2023-06-10T09:00:30;5.85;;;3.10;;
65715;SDS011;63484;52.054;8.518;2023-06-10T09:05:33;7.43;;;3.15;;
65715;SDS011;63484;52.054;8.518;2023-06-10T09:10:36;4.78;;;3.20;;
65715;SDS011;63484;52.054;8.518;2023-06-10T09:15:40;8.20;;;3.60;;
65715;SDS011;63484;52.054;8.518;2023-06-10T09:25:51;7.95;;;3.85;;
65715;SDS011;63484;52.054;8.518;2023-06-10T09:31:04;9.65;;;4.07;;
65715;SDS011;63484;52.054;8.518;2023-06-10T09:36:07;9.68;;;3.85;;
65715;SDS011;63484;52.054;8.518;2023-06-10T09:41:11;7.95;;;4.45;;
65715;SDS011;63484;52.054;8.518;2023-06-10T09:46:17;7.03;;;4.30;;
65715;SDS011;63484;52.054;8.518;2023-06-10T09:51:19;11.00;;;4.28;;
65715;SDS011;63484;52.054;8.518;2023-06-10T09:56:22;8.13;;;4.50;;
65715;SDS011;63484;52.054;8.518;2023-06-10T10:01:35;7.63;;;4.30;;
65715;SDS011;63484;52.054;8.518;2023-06-10T10:06:37;6.75;;;4.60;;
65715;SDS011;63484;52.054;8.518;2023-06-10T10:11:42;9.65;;;4.63;;
65715;SDS011;63484;52.054;8.518;2023-06-10T10:16:47;8.35;;;4.47;;
65715;SDS011;63484;52.054;8.518;2023-06-10T10:21:54;9.05;;;4.55;;
65715;SDS011;63484;52.054;8.518;2023-06-10T10:27:01;7.55;;;4.43;;
65715;SDS011;63484;52.054;8.518;2023-06-10T10:32:08;8.13;;;4.20;;
65715;SDS011;63484;52.054;8.518;2023-06-10T10:37:12;9.07;;;4.20;;
65715;SDS011;63484;52.054;8.518;2023-06-10T10:42:14;9.73;;;4.53;;
65715;SDS011;63484;52.054;8.518;2023-06-10T10:47:19;7.53;;;4.20;;
65715;SDS011;63484;52.054;8.518;2023-06-10T10:52:25;12.60;;;4.40;;
65715;SDS011;63484;52.054;8.518;2023-06-10T10:57:30;6.07;;;3.47;;
65715;SDS011;63484;52.054;8.518;2023-06-10T11:02:37;7.82;;;4.13;;
65715;SDS011;63484;52.054;8.518;2023-06-10T11:07:51;6.60;;;4.05;;
65715;SDS011;63484;52.054;8.518;2023-06-10T11:12:54;7.20;;;3.63;;
65715;SDS011;63484;52.054;8.518;2023-06-10T11:18:10;5.07;;;3.78;;
65715;SDS011;63484;52.054;8.518;2023-06-10T11:23:25;5.35;;;3.67;;
65715;SDS011;63484;52.054;8.518;2023-06-10T11:28:31;9.95;;;3.70;;
65715;SDS011;63484;52.054;8.518;2023-06-10T11:33:36;8.85;;;3.50;;
65715;SDS011;63484;52.054;8.518;2023-06-10T11:38:40;9.07;;;3.58;;
65715;SDS011;63484;52.054;8.518;2023-06-10T11:43:42;6.10;;;3.40;;
65715;SDS011;63484;52.054;8.518;2023-06-10T11:48:49;6.40;;;3.92;;
65715;SDS011;63484;52.054;8.518;2023-06-10T11:53:52;6.95;;;3.53;;
65715;SDS011;63484;52.054;8.518;2023-06-10T11:58:55;7.78;;;3.45;;
65715;SDS011;63484;52.054;8.518;2023-06-10T12:04:00;9.05;;;3.40;;
65715;SDS011;63484;52.054;8.518;2023-06-10T12:09:03;7.82;;;3.60;;
65715;SDS011;63484;52.054;8.518;2023-06-10T12:14:05;7.78;;;3.60;;
65715;SDS011;63484;52.054;8.518;2023-06-10T12:19:08;9.77;;;3.63;;
65715;SDS011;63484;52.054;8.518;2023-06-10T12:24:10;7.25;;;3.35;;
65715;SDS011;63484;52.054;8.518;2023-06-10T12:34:37;7.13;;;3.13;;
65715;SDS011;63484;52.054;8.518;2023-06-10T12:39:40;7.30;;;3.40;;
65715;SDS011;63484;52.054;8.518;2023-06-10T12:44:43;8.30;;;3.47;;
65715;SDS011;63484;52.054;8.518;2023-06-10T12:49:46;6.20;;;3.42;;
65715;SDS011;63484;52.054;8.518;2023-06-10T12:54:47;8.57;;;3.63;;
65715;SDS011;63484;52.054;8.518;2023-06-10T12:59:49;5.65;;;3.72;;
65715;SDS011;63484;52.054;8.518;2023-06-10T13:04:54;5.95;;;3.38;;
65715;SDS011;63484;52.054;8.518;2023-06-10T13:09:55;5.78;;;3.63;;
65715;SDS011;63484;52.054;8.518;2023-06-10T13:14:57;6.43;;;3.58;;
65715;SDS011;63484;52.054;8.518;2023-06-10T13:20:00;6.97;;;3.40;;
65715;SDS011;63484;52.054;8.518;2023-06-10T13:25:03;6.90;;;3.90;;
65715;SDS011;63484;52.054;8.518;2023-06-10T13:30:07;6.00;;;3.53;;
65715;SDS011;63484;52.054;8.518;2023-06-10T13:35:12;7.15;;;3.90;;
65715;SDS011;63484;52.054;8.518;2023-06-10T13:40:14;6.53;;;3.70;;
65715;SDS011;63484;52.054;8.518;2023-06-10T13:45:16;9.43;;;3.90;;
65715;SDS011;63484;52.054;8.518;2023-06-10T13:50:19;6.77;;;4.20;;
65715;SDS011;63484;52.054;8.518;2023-06-10T13:55:21;8.00;;;4.47;;
65715;SDS011;63484;52.054;8.518;2023-06-10T14:00:24;7.07;;;4.45;;
65715;SDS011;63484;52.054;8.518;2023-06-10T14:05:29;8.68;;;4.20;;
65715;SDS011;63484;52.054;8.518;2023-06-10T14:10:30;6.95;;;4.32;;
65715;SDS011;63484;52.054;8.518;2023-06-10T14:15:33;7.10;;;4.30;;
65715;SDS011;63484;52.054;8.518;2023-06-10T14:20:36;9.93;;;4.70;;
65715;SDS011;63484;52.054;8.518;2023-06-10T14:25:38;10.77;;;4.53;;
65715;SDS011;63484;52.054;8.518;2023-06-10T14:30:39;6.15;;;4.40;;
65715;SDS011;63484;52.054;8.518;2023-06-10T14:35:44;4.40;;;4.00;;
65715;SDS011;63484;52.054;8.518;2023-06-10T14:40:46;9.27;;;4.78;;
65715;SDS011;63484;52.054;8.518;2023-06-10T14:45:48;10.18;;;4.60;;
65715;SDS011;63484;52.054;8.518;2023-06-10T14:50:52;8.13;;;5.00;;
65715;SDS011;63484;52.054;8.518;2023-06-10T14:55:55;8.90;;;4.75;;
65715;SDS011;63484;52.054;8.518;2023-06-10T15:00:57;11.15;;;5.55;;
65715;SDS011;63484;52.054;8.518;2023-06-10T15:06:00;7.50;;;5.00;;
65715;SDS011;63484;52.054;8.518;2023-06-10T15:11:01;7.97;;;5.10;;
65715;SDS011;63484;52.054;8.518;2023-06-10T15:16:03;9.97;;;5.50;;
65715;SDS011;63484;52.054;8.518;2023-06-10T15:21:07;6.15;;;4.95;;
65715;SDS011;63484;52.054;8.518;2023-06-10T15:26:09;15.35;;;5.80;;
65715;SDS011;63484;52.054;8.518;2023-06-10T15:31:11;11.68;;;5.35;;
65715;SDS011;63484;52.054;8.518;2023-06-10T15:36:14;10.10;;;5.78;;
65715;SDS011;63484;52.054;8.518;2023-06-10T15:41:16;8.20;;;5.30;;
65715;SDS011;63484;52.054;8.518;2023-06-10T15:46:17;8.15;;;5.50;;
65715;SDS011;63484;52.054;8.518;2023-06-10T15:51:21;6.63;;;5.10;;
65715;SDS011;63484;52.054;8.518;2023-06-10T15:56:25;6.57;;;4.90;;
65715;SDS011;63484;52.054;8.518;2023-06-10T16:01:27;8.23;;;5.43;;
65715;SDS011;63484;52.054;8.518;2023-06-10T16:06:30;10.32;;;5.65;;
65715;SDS011;63484;52.054;8.518;2023-06-10T16:11:32;8.77;;;5.40;;
65715;SDS011;63484;52.054;8.518;2023-06-10T16:16:33;15.02;;;6.10;;
65715;SDS011;63484;52.054;8.518;2023-06-10T16:21:37;7.60;;;5.53;;
65715;SDS011;63484;52.054;8.518;2023-06-10T16:26:40;9.43;;;5.25;;
65715;SDS011;63484;52.054;8.518;2023-06-10T16:31:41;11.25;;;5.50;;
65715;SDS011;63484;52.054;8.518;2023-06-10T16:36:44;9.70;;;5.50;;
65715;SDS011;63484;52.054;8.518;2023-06-10T16:41:46;8.00;;;5.47;;
65715;SDS011;63484;52.054;8.518;2023-06-10T16:46:48;8.07;;;5.45;;
65715;SDS011;63484;52.054;8.518;2023-06-10T16:51:53;8.63;;;5.28;;
65715;SDS011;63484;52.054;8.518;2023-06-10T16:56:55;6.60;;;5.32;;
65715;SDS011;63484;52.054;8.518;2023-06-10T17:01:57;6.80;;;5.40;;
65715;SDS011;63484;52.054;8.518;2023-06-10T17:07:00;9.07;;;5.75;;
65715;SDS011;63484;52.054;8.518;2023-06-10T17:12:02;8.60;;;5.10;;
65715;SDS011;63484;52.054;8.518;2023-06-10T17:17:04;7.82;;;5.75;;
65715;SDS011;63484;52.054;8.518;2023-06-10T17:22:08;10.90;;;5.20;;
65715;SDS011;63484;52.054;8.518;2023-06-10T17:27:10;6.75;;;5.30;;
65715;SDS011;63484;52.054;8.518;2023-06-10T17:32:11;6.88;;;4.85;;
65715;SDS011;63484;52.054;8.518;2023-06-10T17:37:14;6.43;;;5.32;;
65715;SDS011;63484;52.054;8.518;2023-06-10T17:42:16;6.78;;;4.95;;
65715;SDS011;63484;52.054;8.518;2023-06-10T17:47:18;12.82;;;5.00;;
65715;SDS011;63484;52.054;8.518;2023-06-10T17:52:21;7.53;;;5.55;;
65715;SDS011;63484;52.054;8.518;2023-06-10T17:57:23;7.78;;;5.07;;
65715;SDS011;63484;52.054;8.518;2023-06-10T18:02:25;7.03;;;5.45;;
65715;SDS011;63484;52.054;8.518;2023-06-10T18:07:28;9.85;;;5.85;;
65715;SDS011;63484;52.054;8.518;2023-06-10T18:12:30;9.82;;;5.43;;
65715;SDS011;63484;52.054;8.518;2023-06-10T18:17:32;7.25;;;5.65;;
65715;SDS011;63484;52.054;8.518;2023-06-10T18:22:37;11.05;;;6.22;;
65715;SDS011;63484;52.054;8.518;2023-06-10T18:27:39;12.50;;;5.80;;
65715;SDS011;63484;52.054;8.518;2023-06-10T18:32:41;10.30;;;6.00;;
65715;SDS011;63484;52.054;8.518;2023-06-10T18:37:46;11.52;;;5.70;;
65715;SDS011;63484;52.054;8.518;2023-06-10T18:42:48;8.65;;;5.78;;
65715;SDS011;63484;52.054;8.518;2023-06-10T18:47:49;7.85;;;5.55;;
65715;SDS011;63484;52.054;8.518;2023-06-10T18:52:52;13.85;;;5.82;;
65715;SDS011;63484;52.054;8.518;2023-06-10T18:57:54;15.30;;;5.90;;
65715;SDS011;63484;52.054;8.518;2023-06-10T19:02:56;9.55;;;5.88;;
65715;SDS011;63484;52.054;8.518;2023-06-10T19:07:59;8.15;;;5.43;;
65715;SDS011;63484;52.054;8.518;2023-06-10T19:13:04;7.15;;;5.28;;
65715;SDS011;63484;52.054;8.518;2023-06-10T19:18:07;5.30;;;4.68;;
65715;SDS011;63484;52.054;8.518;2023-06-10T19:23:10;8.50;;;4.30;;
65715;SDS011;63484;52.054;8.518;2023-06-10T19:28:12;5.05;;;4.40;;
65715;SDS011;63484;52.054;8.518;2023-06-10T19:33:14;5.88;;;4.47;;
65715;SDS011;63484;52.054;8.518;2023-06-10T19:38:17;5.85;;;4.45;;
65715;SDS011;63484;52.054;8.518;2023-06-10T19:48:20;10.45;;;3.95;;
65715;SDS011;63484;52.054;8.518;2023-06-10T19:53:24;5.55;;;4.10;;
65715;SDS011;63484;52.054;8.518;2023-06-10T19:58:26;4.72;;;3.70;;
65715;SDS011;63484;52.054;8.518;2023-06-10T20:03:30;11.65;;;4.45;;
65715;SDS011;63484;52.054;8.518;2023-06-10T20:08:33;7.05;;;4.13;;
65715;SDS011;63484;52.054;8.518;2023-06-10T20:13:35;5.95;;;4.38;;
65715;SDS011;63484;52.054;8.518;2023-06-10T20:18:37;5.95;;;4.05;;
65715;SDS011;63484;52.054;8.518;2023-06-10T20:23:40;7.22;;;4.38;;
65715;SDS011;63484;52.054;8.518;2023-06-10T20:28:42;10.52;;;4.75;;
65715;SDS011;63484;52.054;8.518;2023-06-10T20:33:44;10.27;;;4.45;;
65715;SDS011;63484;52.054;8.518;2023-06-10T20:38:47;5.65;;;4.65;;
65715;SDS011;63484;52.054;8.518;2023-06-10T20:48:51;6.95;;;5.35;;
65715;SDS011;63484;52.054;8.518;2023-06-10T20:53:54;7.38;;;5.40;;
65715;SDS011;63484;52.054;8.518;2023-06-10T20:58:55;10.48;;;5.63;;
65715;SDS011;63484;52.054;8.518;2023-06-10T21:03:57;9.68;;;5.85;;
65715;SDS011;63484;52.054;8.518;2023-06-10T21:09:03;7.95;;;5.80;;
65715;SDS011;63484;52.054;8.518;2023-06-10T21:14:05;9.60;;;6.00;;
65715;SDS011;63484;52.054;8.518;2023-06-10T21:19:06;8.82;;;6.20;;
65715;SDS011;63484;52.054;8.518;2023-06-10T21:24:12;10.73;;;5.82;;
65715;SDS011;63484;52.054;8.518;2023-06-10T21:29:14;8.45;;;6.13;;
65715;SDS011;63484;52.054;8.518;2023-06-10T21:34:15;9.15;;;5.65;;
65715;SDS011;63484;52.054;8.518;2023-06-10T21:39:18;9.27;;;5.93;;
65715;SDS011;63484;52.054;8.518;2023-06-10T21:44:20;11.35;;;6.05;;
65715;SDS011;63484;52.054;8.518;2023-06-10T21:49:22;9.55;;;6.57;;
65715;SDS011;63484;52.054;8.518;2023-06-10T21:54:25;9.55;;;6.97;;
65715;SDS011;63484;52.054;8.518;2023-06-10T21:59:29;10.13;;;6.68;;
65715;SDS011;63484;52.054;8.518;2023-06-10T22:04:32;9.00;;;6.38;;
65715;SDS011;63484;52.054;8.518;2023-06-10T22:09:35;9.45;;;6.65;;
65715;SDS011;63484;52.054;8.518;2023-06-10T22:14:37;13.18;;;6.43;;
65715;SDS011;63484;52.054;8.518;2023-06-10T22:19:38;10.95;;;6.70;;
65715;SDS011;63484;52.054;8.518;2023-06-10T22:24:45;11.02;;;6.63;;
65715;SDS011;63484;52.054;8.518;2023-06-10T22:29:49;9.32;;;7.15;;
65715;SDS011;63484;52.054;8.518;2023-06-10T22:34:51;11.45;;;6.80;;
65715;SDS011;63484;52.054;8.518;2023-06-10T22:39:54;8.70;;;7.00;;
65715;SDS011;63484;52.054;8.518;2023-06-10T22:44:56;9.60;;;7.43;;
65715;SDS011;63484;52.054;8.518;2023-06-10T22:49:58;8.88;;;7.25;;
65715;SDS011;63484;52.054;8.518;2023-06-10T22:55:01;12.32;;;7.55;;
65715;SDS011;63484;52.054;8.518;2023-06-10T23:00:05;10.57;;;6.95;;
65715;SDS011;63484;52.054;8.518;2023-06-10T23:05:09;11.10;;;6.82;;
65715;SDS011;63484;52.054;8.518;2023-06-10T23:10:12;17.52;;;8.77;;
65715;SDS011;63484;52.054;8.518;2023-06-10T23:15:14;8.60;;;6.93;;
65715;SDS011;63484;52.054;8.518;2023-06-10T23:20:16;10.18;;;7.13;;
65715;SDS011;63484;52.054;8.518;2023-06-10T23:25:21;13.07;;;7.63;;
65715;SDS011;63484;52.054;8.518;2023-06-10T23:30:25;9.38;;;6.88;;
65715;SDS011;63484;52.054;8.518;2023-06-10T23:35:26;8.05;;;6.88;;
65715;SDS011;63484;52.054;8.518;2023-06-10T23:45:33;9.50;;;6.97;;
65715;SDS011;63484;52.054;8.518;2023-06-10T23:50:35;10.38;;;7.93;;
65715;SDS011;63484;52.054;8.518;2023-06-10T23:55:39;15.73;;;8.90;;
